sensor_id;sensor_type;location;lat;lon;timestamp;temperature;humidity
36416;DHT22;22447;44.530;18.620;2023-06-26T00:02:24;18.30;99.90
36416;DHT22;22447;44.530;18.620;2023-06-26T00:04:50;18.30;99.90
36416;DHT22;22447;44.530;18.620;2023-06-26T00:07:20;18.30;99.90
36416;DHT22;22447;44.530;18.620;2023-06-26T00:09:46;18.20;99.90
36416;DHT22;22447;44.530;18.620;2023-06-26T00:12:12;18.30;99.90
36416;DHT22;22447;44.530;18.620;2023-06-26T00:14:38;18.30;99.90
36416;DHT22;22447;44.530;18.620;2023-06-26T00:17:04;18.30;99.90
36416;DHT22;22447;44.530;18.620;2023-06-26T00:19:30;18.30;99.90
36416;DHT22;22447;44.530;18.620;2023-06-26T00:21:56;18.30;99.90
36416;DHT22;22447;44.530;18.620;2023-06-26T00:24:22;18.20;99.90
36416;DHT22;22447;44.530;18.620;2023-06-26T00:26:48;18.30;99.90
36416;DHT22;22447;44.530;18.620;2023-06-26T00:29:15;18.20;99.90
36416;DHT22;22447;44.530;18.620;2023-06-26T00:31:41;18.20;99.90
36416;DHT22;22447;44.530;18.620;2023-06-26T00:34:07;18.20;99.90
36416;DHT22;22447;44.530;18.620;2023-06-26T00:36:33;18.10;99.90
36416;DHT22;22447;44.530;18.620;2023-06-26T00:38:59;18.20;99.90
36416;DHT22;22447;44.530;18.620;2023-06-26T00:41:26;18.20;99.90
36416;DHT22;22447;44.530;18.620;2023-06-26T00:43:52;18.10;99.90
36416;DHT22;22447;44.530;18.620;2023-06-26T00:46:18;18.10;99.90
36416;DHT22;22447;44.530;18.620;2023-06-26T00:48:46;18.10;99.90
36416;DHT22;22447;44.530;18.620;2023-06-26T00:51:14;18.20;99.90
36416;DHT22;22447;44.530;18.620;2023-06-26T00:53:40;18.10;99.90
36416;DHT22;22447;44.530;18.620;2023-06-26T00:56:06;18.20;99.90
36416;DHT22;22447;44.530;18.620;2023-06-26T00:58:35;18.20;99.90
36416;DHT22;22447;44.530;18.620;2023-06-26T01:01:01;18.20;99.90
36416;DHT22;22447;44.530;18.620;2023-06-26T01:03:28;18.20;99.90
36416;DHT22;22447;44.530;18.620;2023-06-26T01:05:56;18.10;99.90
36416;DHT22;22447;44.530;18.620;2023-06-26T01:08:24;18.10;99.90
36416;DHT22;22447;44.530;18.620;2023-06-26T01:10:51;18.10;99.90
36416;DHT22;22447;44.530;18.620;2023-06-26T01:13:17;18.10;99.90
36416;DHT22;22447;44.530;18.620;2023-06-26T01:15:43;18.10;99.90
36416;DHT22;22447;44.530;18.620;2023-06-26T01:18:09;18.20;99.90
36416;DHT22;22447;44.530;18.620;2023-06-26T01:20:39;18.20;99.90
36416;DHT22;22447;44.530;18.620;2023-06-26T01:23:12;18.20;99.90
36416;DHT22;22447;44.530;18.620;2023-06-26T01:28:19;18.10;99.90
36416;DHT22;22447;44.530;18.620;2023-06-26T01:30:46;18.10;99.90
36416;DHT22;22447;44.530;18.620;2023-06-26T01:33:14;18.10;99.90
36416;DHT22;22447;44.530;18.620;2023-06-26T01:35:40;18.00;99.90
36416;DHT22;22447;44.530;18.620;2023-06-26T01:38:20;18.10;99.90
36416;DHT22;22447;44.530;18.620;2023-06-26T01:40:46;18.10;99.90
36416;DHT22;22447;44.530;18.620;2023-06-26T01:46:02;18.00;99.90
36416;DHT22;22447;44.530;18.620;2023-06-26T01:51:35;18.00;99.90
36416;DHT22;22447;44.530;18.620;2023-06-26T01:54:07;18.00;99.90
36416;DHT22;22447;44.530;18.620;2023-06-26T01:56:35;18.00;99.90
36416;DHT22;22447;44.530;18.620;2023-06-26T01:59:03;18.10;99.90
36416;DHT22;22447;44.530;18.620;2023-06-26T02:01:31;18.00;99.90
36416;DHT22;22447;44.530;18.620;2023-06-26T02:03:59;17.90;99.90
36416;DHT22;22447;44.530;18.620;2023-06-26T02:06:25;17.90;99.90
36416;DHT22;22447;44.530;18.620;2023-06-26T02:08:51;17.90;99.90
36416;DHT22;22447;44.530;18.620;2023-06-26T02:11:17;17.80;99.90
36416;DHT22;22447;44.530;18.620;2023-06-26T02:13:43;17.80;99.90
36416;DHT22;22447;44.530;18.620;2023-06-26T02:16:09;17.80;99.90
36416;DHT22;22447;44.530;18.620;2023-06-26T02:18:35;17.80;99.90
36416;DHT22;22447;44.530;18.620;2023-06-26T02:21:02;17.70;99.90
36416;DHT22;22447;44.530;18.620;2023-06-26T02:23:29;17.70;99.90
36416;DHT22;22447;44.530;18.620;2023-06-26T02:25:56;17.60;99.90
36416;DHT22;22447;44.530;18.620;2023-06-26T02:28:22;17.60;99.90
36416;DHT22;22447;44.530;18.620;2023-06-26T02:30:48;17.50;99.90
36416;DHT22;22447;44.530;18.620;2023-06-26T02:33:14;17.50;99.90
36416;DHT22;22447;44.530;18.620;2023-06-26T02:35:40;17.50;99.90
36416;DHT22;22447;44.530;18.620;2023-06-26T02:38:09;17.40;99.90
36416;DHT22;22447;44.530;18.620;2023-06-26T02:40:35;17.30;99.90
36416;DHT22;22447;44.530;18.620;2023-06-26T02:43:02;17.30;99.90
36416;DHT22;22447;44.530;18.620;2023-06-26T02:45:27;17.20;99.90
36416;DHT22;22447;44.530;18.620;2023-06-26T02:47:54;17.20;99.90
36416;DHT22;22447;44.530;18.620;2023-06-26T02:50:20;17.10;99.90
36416;DHT22;22447;44.530;18.620;2023-06-26T02:53:04;17.10;99.90
36416;DHT22;22447;44.530;18.620;2023-06-26T02:55:30;17.00;99.90
36416;DHT22;22447;44.530;18.620;2023-06-26T02:57:57;17.00;99.90
36416;DHT22;22447;44.530;18.620;2023-06-26T03:00:23;16.90;99.90
36416;DHT22;22447;44.530;18.620;2023-06-26T03:02:52;16.90;99.90
36416;DHT22;22447;44.530;18.620;2023-06-26T03:05:19;16.90;99.90
36416;DHT22;22447;44.530;18.620;2023-06-26T03:07:46;16.90;99.90
36416;DHT22;22447;44.530;18.620;2023-06-26T03:10:13;16.90;99.90
36416;DHT22;22447;44.530;18.620;2023-06-26T03:12:39;16.90;99.90
36416;DHT22;22447;44.530;18.620;2023-06-26T03:15:05;16.80;99.90
36416;DHT22;22447;44.530;18.620;2023-06-26T03:17:33;16.80;99.90
36416;DHT22;22447;44.530;18.620;2023-06-26T03:20:04;16.90;99.90
36416;DHT22;22447;44.530;18.620;2023-06-26T03:22:52;16.90;99.90
36416;DHT22;22447;44.530;18.620;2023-06-26T03:25:20;16.90;99.90
36416;DHT22;22447;44.530;18.620;2023-06-26T03:27:46;16.90;99.90
36416;DHT22;22447;44.530;18.620;2023-06-26T03:30:13;16.90;99.90
36416;DHT22;22447;44.530;18.620;2023-06-26T03:32:41;17.00;99.90
36416;DHT22;22447;44.530;18.620;2023-06-26T03:35:08;17.00;99.90
36416;DHT22;22447;44.530;18.620;2023-06-26T03:37:35;17.00;99.90
36416;DHT22;22447;44.530;18.620;2023-06-26T03:40:01;17.00;99.90
36416;DHT22;22447;44.530;18.620;2023-06-26T03:42:30;17.10;99.90
36416;DHT22;22447;44.530;18.620;2023-06-26T03:44:56;17.10;99.90
36416;DHT22;22447;44.530;18.620;2023-06-26T03:47:22;17.20;99.90
36416;DHT22;22447;44.530;18.620;2023-06-26T03:49:48;17.20;99.90
36416;DHT22;22447;44.530;18.620;2023-06-26T03:52:14;17.20;99.90
36416;DHT22;22447;44.530;18.620;2023-06-26T03:54:40;17.20;99.90
36416;DHT22;22447;44.530;18.620;2023-06-26T03:57:09;17.20;99.90
36416;DHT22;22447;44.530;18.620;2023-06-26T03:59:36;17.20;99.90
36416;DHT22;22447;44.530;18.620;2023-06-26T04:02:02;17.20;99.90
36416;DHT22;22447;44.530;18.620;2023-06-26T04:04:29;17.30;99.90
36416;DHT22;22447;44.530;18.620;2023-06-26T04:06:55;17.20;99.90
36416;DHT22;22447;44.530;18.620;2023-06-26T04:09:22;17.30;99.90
36416;DHT22;22447;44.530;18.620;2023-06-26T04:11:48;17.30;99.90
36416;DHT22;22447;44.530;18.620;2023-06-26T04:14:16;17.40;99.90
36416;DHT22;22447;44.530;18.620;2023-06-26T04:16:42;17.50;99.90
36416;DHT22;22447;44.530;18.620;2023-06-26T04:19:08;17.60;99.90
36416;DHT22;22447;44.530;18.620;2023-06-26T04:21:35;17.70;99.90
36416;DHT22;22447;44.530;18.620;2023-06-26T04:24:01;17.80;99.90
36416;DHT22;22447;44.530;18.620;2023-06-26T04:26:27;17.80;99.90
36416;DHT22;22447;44.530;18.620;2023-06-26T04:28:54;17.80;99.90
36416;DHT22;22447;44.530;18.620;2023-06-26T04:31:20;18.00;99.90
36416;DHT22;22447;44.530;18.620;2023-06-26T04:33:47;18.10;99.90
36416;DHT22;22447;44.530;18.620;2023-06-26T04:36:19;18.20;99.90
36416;DHT22;22447;44.530;18.620;2023-06-26T04:38:46;18.10;99.90
36416;DHT22;22447;44.530;18.620;2023-06-26T04:41:14;18.20;99.90
36416;DHT22;22447;44.530;18.620;2023-06-26T04:43:39;18.30;99.90
36416;DHT22;22447;44.530;18.620;2023-06-26T04:46:06;18.40;99.90
36416;DHT22;22447;44.530;18.620;2023-06-26T04:48:32;18.40;99.90
36416;DHT22;22447;44.530;18.620;2023-06-26T04:50:58;18.50;99.90
36416;DHT22;22447;44.530;18.620;2023-06-26T04:53:25;18.50;99.90
36416;DHT22;22447;44.530;18.620;2023-06-26T04:55:51;18.70;99.90
36416;DHT22;22447;44.530;18.620;2023-06-26T04:58:18;18.90;99.90
36416;DHT22;22447;44.530;18.620;2023-06-26T05:00:44;18.90;99.90
36416;DHT22;22447;44.530;18.620;2023-06-26T05:03:12;19.00;99.90
36416;DHT22;22447;44.530;18.620;2023-06-26T05:05:38;19.20;99.90
36416;DHT22;22447;44.530;18.620;2023-06-26T05:08:36;19.20;99.90
36416;DHT22;22447;44.530;18.620;2023-06-26T05:11:02;19.20;99.90
36416;DHT22;22447;44.530;18.620;2023-06-26T05:13:28;19.20;99.90
36416;DHT22;22447;44.530;18.620;2023-06-26T05:15:54;19.40;99.90
36416;DHT22;22447;44.530;18.620;2023-06-26T05:18:20;19.40;99.90
36416;DHT22;22447;44.530;18.620;2023-06-26T05:20:47;19.60;99.90
36416;DHT22;22447;44.530;18.620;2023-06-26T05:23:13;19.70;99.90
36416;DHT22;22447;44.530;18.620;2023-06-26T05:25:40;19.70;99.90
36416;DHT22;22447;44.530;18.620;2023-06-26T05:28:06;19.80;99.90
36416;DHT22;22447;44.530;18.620;2023-06-26T05:30:36;19.90;99.90
36416;DHT22;22447;44.530;18.620;2023-06-26T05:33:03;20.00;99.90
36416;DHT22;22447;44.530;18.620;2023-06-26T05:35:31;19.80;99.90
36416;DHT22;22447;44.530;18.620;2023-06-26T05:37:58;19.60;99.90
36416;DHT22;22447;44.530;18.620;2023-06-26T05:40:25;19.60;99.90
36416;DHT22;22447;44.530;18.620;2023-06-26T05:42:51;19.90;99.90
36416;DHT22;22447;44.530;18.620;2023-06-26T05:45:17;20.00;99.90
36416;DHT22;22447;44.530;18.620;2023-06-26T05:47:43;20.20;99.90
36416;DHT22;22447;44.530;18.620;2023-06-26T05:50:10;20.30;99.90
36416;DHT22;22447;44.530;18.620;2023-06-26T05:52:36;20.50;99.90
36416;DHT22;22447;44.530;18.620;2023-06-26T05:55:05;20.70;99.90
36416;DHT22;22447;44.530;18.620;2023-06-26T05:57:31;21.00;99.90
36416;DHT22;22447;44.530;18.620;2023-06-26T05:59:57;21.10;99.90
36416;DHT22;22447;44.530;18.620;2023-06-26T06:02:23;21.40;99.90
36416;DHT22;22447;44.530;18.620;2023-06-26T06:04:49;21.70;99.90
36416;DHT22;22447;44.530;18.620;2023-06-26T06:07:15;21.70;99.90
36416;DHT22;22447;44.530;18.620;2023-06-26T06:09:41;21.90;99.90
36416;DHT22;22447;44.530;18.620;2023-06-26T06:12:08;22.10;99.90
36416;DHT22;22447;44.530;18.620;2023-06-26T06:14:34;22.00;99.90
36416;DHT22;22447;44.530;18.620;2023-06-26T06:17:00;22.30;99.90
36416;DHT22;22447;44.530;18.620;2023-06-26T06:19:26;22.30;99.90
36416;DHT22;22447;44.530;18.620;2023-06-26T06:21:52;22.50;99.90
36416;DHT22;22447;44.530;18.620;2023-06-26T06:24:19;22.60;99.90
36416;DHT22;22447;44.530;18.620;2023-06-26T06:26:45;22.60;99.90
36416;DHT22;22447;44.530;18.620;2023-06-26T06:29:11;22.70;99.90
36416;DHT22;22447;44.530;18.620;2023-06-26T06:31:37;22.80;99.90
36416;DHT22;22447;44.530;18.620;2023-06-26T06:34:03;22.80;99.90
36416;DHT22;22447;44.530;18.620;2023-06-26T06:36:29;22.90;99.90
36416;DHT22;22447;44.530;18.620;2023-06-26T06:38:54;23.10;99.90
36416;DHT22;22447;44.530;18.620;2023-06-26T06:41:20;23.10;99.90
36416;DHT22;22447;44.530;18.620;2023-06-26T06:43:47;23.20;99.90
36416;DHT22;22447;44.530;18.620;2023-06-26T06:46:13;23.30;99.90
36416;DHT22;22447;44.530;18.620;2023-06-26T06:48:38;23.40;99.90
36416;DHT22;22447;44.530;18.620;2023-06-26T06:51:04;23.40;99.90
36416;DHT22;22447;44.530;18.620;2023-06-26T06:53:31;23.60;99.90
36416;DHT22;22447;44.530;18.620;2023-06-26T06:55:57;23.60;99.90
36416;DHT22;22447;44.530;18.620;2023-06-26T06:58:23;23.60;99.90
36416;DHT22;22447;44.530;18.620;2023-06-26T07:00:49;23.80;99.90
36416;DHT22;22447;44.530;18.620;2023-06-26T07:03:17;23.80;99.90
36416;DHT22;22447;44.530;18.620;2023-06-26T07:05:44;23.70;99.90
36416;DHT22;22447;44.530;18.620;2023-06-26T07:08:10;24.00;99.90
36416;DHT22;22447;44.530;18.620;2023-06-26T07:10:37;24.30;99.90
36416;DHT22;22447;44.530;18.620;2023-06-26T07:13:05;24.50;99.90
36416;DHT22;22447;44.530;18.620;2023-06-26T07:15:31;24.60;99.90
36416;DHT22;22447;44.530;18.620;2023-06-26T07:17:57;24.80;99.90
36416;DHT22;22447;44.530;18.620;2023-06-26T07:20:23;25.00;99.90
36416;DHT22;22447;44.530;18.620;2023-06-26T07:22:49;25.20;99.90
36416;DHT22;22447;44.530;18.620;2023-06-26T07:25:15;25.40;99.90
36416;DHT22;22447;44.530;18.620;2023-06-26T07:27:42;25.70;99.90
36416;DHT22;22447;44.530;18.620;2023-06-26T07:30:08;25.70;99.70
36416;DHT22;22447;44.530;18.620;2023-06-26T07:32:35;25.50;99.90
36416;DHT22;22447;44.530;18.620;2023-06-26T07:35:02;25.50;99.90
36416;DHT22;22447;44.530;18.620;2023-06-26T07:37:28;25.60;99.90
36416;DHT22;22447;44.530;18.620;2023-06-26T07:39:54;25.90;99.90
36416;DHT22;22447;44.530;18.620;2023-06-26T07:42:19;26.20;99.80
36416;DHT22;22447;44.530;18.620;2023-06-26T07:44:46;26.70;99.90
36416;DHT22;22447;44.530;18.620;2023-06-26T07:47:12;27.00;99.90
36416;DHT22;22447;44.530;18.620;2023-06-26T07:49:39;27.20;97.10
36416;DHT22;22447;44.530;18.620;2023-06-26T07:52:05;27.50;97.60
36416;DHT22;22447;44.530;18.620;2023-06-26T07:54:31;27.60;97.50
36416;DHT22;22447;44.530;18.620;2023-06-26T07:56:57;27.60;95.90
36416;DHT22;22447;44.530;18.620;2023-06-26T07:59:25;27.10;95.20
36416;DHT22;22447;44.530;18.620;2023-06-26T08:01:53;27.40;97.60
36416;DHT22;22447;44.530;18.620;2023-06-26T08:04:20;27.60;94.30
36416;DHT22;22447;44.530;18.620;2023-06-26T08:06:48;27.50;93.30
36416;DHT22;22447;44.530;18.620;2023-06-26T08:09:14;27.90;98.10
36416;DHT22;22447;44.530;18.620;2023-06-26T08:11:40;28.30;94.10
36416;DHT22;22447;44.530;18.620;2023-06-26T08:14:10;27.90;92.90
36416;DHT22;22447;44.530;18.620;2023-06-26T08:16:38;27.70;94.10
36416;DHT22;22447;44.530;18.620;2023-06-26T08:19:04;27.50;94.50
36416;DHT22;22447;44.530;18.620;2023-06-26T08:21:30;28.10;93.30
36416;DHT22;22447;44.530;18.620;2023-06-26T08:23:56;28.10;93.80
36416;DHT22;22447;44.530;18.620;2023-06-26T08:26:22;28.10;93.90
36416;DHT22;22447;44.530;18.620;2023-06-26T08:28:49;27.80;93.80
36416;DHT22;22447;44.530;18.620;2023-06-26T08:31:21;27.90;92.70
36416;DHT22;22447;44.530;18.620;2023-06-26T08:33:47;28.10;96.30
36416;DHT22;22447;44.530;18.620;2023-06-26T08:36:13;28.50;92.10
36416;DHT22;22447;44.530;18.620;2023-06-26T08:38:41;28.50;93.20
36416;DHT22;22447;44.530;18.620;2023-06-26T08:41:07;28.70;93.10
36416;DHT22;22447;44.530;18.620;2023-06-26T08:43:34;28.20;92.50
36416;DHT22;22447;44.530;18.620;2023-06-26T08:46:00;28.30;92.40
36416;DHT22;22447;44.530;18.620;2023-06-26T08:48:29;28.70;93.40
36416;DHT22;22447;44.530;18.620;2023-06-26T08:50:58;29.10;93.80
36416;DHT22;22447;44.530;18.620;2023-06-26T08:53:29;29.40;91.90
36416;DHT22;22447;44.530;18.620;2023-06-26T08:55:59;29.60;88.30
36416;DHT22;22447;44.530;18.620;2023-06-26T08:58:26;29.60;92.50
36416;DHT22;22447;44.530;18.620;2023-06-26T09:00:52;29.80;87.60
36416;DHT22;22447;44.530;18.620;2023-06-26T09:03:19;29.20;83.70
36416;DHT22;22447;44.530;18.620;2023-06-26T09:05:45;29.00;88.10
36416;DHT22;22447;44.530;18.620;2023-06-26T09:08:11;29.20;87.20
36416;DHT22;22447;44.530;18.620;2023-06-26T09:10:39;28.70;88.50
36416;DHT22;22447;44.530;18.620;2023-06-26T09:13:05;28.50;87.10
36416;DHT22;22447;44.530;18.620;2023-06-26T09:15:57;28.40;88.30
36416;DHT22;22447;44.530;18.620;2023-06-26T09:18:23;28.40;89.50
36416;DHT22;22447;44.530;18.620;2023-06-26T09:20:50;28.10;88.60
36416;DHT22;22447;44.530;18.620;2023-06-26T09:23:16;27.90;91.00
36416;DHT22;22447;44.530;18.620;2023-06-26T09:25:42;28.10;90.90
36416;DHT22;22447;44.530;18.620;2023-06-26T09:28:10;28.70;90.20
36416;DHT22;22447;44.530;18.620;2023-06-26T09:30:36;29.30;87.80
36416;DHT22;22447;44.530;18.620;2023-06-26T09:33:22;29.50;88.60
36416;DHT22;22447;44.530;18.620;2023-06-26T09:35:48;29.40;88.30
36416;DHT22;22447;44.530;18.620;2023-06-26T09:38:14;29.50;89.90
36416;DHT22;22447;44.530;18.620;2023-06-26T09:40:40;29.30;85.10
36416;DHT22;22447;44.530;18.620;2023-06-26T09:43:07;29.20;88.50
36416;DHT22;22447;44.530;18.620;2023-06-26T09:45:34;28.90;87.10
36416;DHT22;22447;44.530;18.620;2023-06-26T09:48:03;28.90;87.40
36416;DHT22;22447;44.530;18.620;2023-06-26T09:50:29;28.60;88.60
36416;DHT22;22447;44.530;18.620;2023-06-26T09:52:57;28.30;89.50
36416;DHT22;22447;44.530;18.620;2023-06-26T09:55:24;28.00;86.10
36416;DHT22;22447;44.530;18.620;2023-06-26T09:57:50;27.80;90.70
36416;DHT22;22447;44.530;18.620;2023-06-26T10:00:18;27.40;91.60
36416;DHT22;22447;44.530;18.620;2023-06-26T10:02:44;27.00;92.60
36416;DHT22;22447;44.530;18.620;2023-06-26T10:05:10;26.60;94.40
36416;DHT22;22447;44.530;18.620;2023-06-26T10:07:37;26.50;96.70
36416;DHT22;22447;44.530;18.620;2023-06-26T10:10:05;26.50;98.40
36416;DHT22;22447;44.530;18.620;2023-06-26T10:12:33;26.50;97.50
36416;DHT22;22447;44.530;18.620;2023-06-26T10:15:03;26.30;96.50
36416;DHT22;22447;44.530;18.620;2023-06-26T10:17:34;26.20;99.50
36416;DHT22;22447;44.530;18.620;2023-06-26T10:20:02;26.20;98.50
36416;DHT22;22447;44.530;18.620;2023-06-26T10:22:31;26.10;99.10
36416;DHT22;22447;44.530;18.620;2023-06-26T10:25:02;26.10;99.90
36416;DHT22;22447;44.530;18.620;2023-06-26T10:27:35;26.00;99.90
36416;DHT22;22447;44.530;18.620;2023-06-26T10:30:06;26.10;99.00
36416;DHT22;22447;44.530;18.620;2023-06-26T10:32:36;26.20;98.70
36416;DHT22;22447;44.530;18.620;2023-06-26T10:35:05;26.80;98.30
36416;DHT22;22447;44.530;18.620;2023-06-26T10:37:44;27.00;97.90
36416;DHT22;22447;44.530;18.620;2023-06-26T10:40:22;27.40;98.20
36416;DHT22;22447;44.530;18.620;2023-06-26T10:42:50;27.50;92.70
36416;DHT22;22447;44.530;18.620;2023-06-26T10:45:20;27.70;92.90
36416;DHT22;22447;44.530;18.620;2023-06-26T10:47:49;27.70;92.20
36416;DHT22;22447;44.530;18.620;2023-06-26T10:50:27;27.70;92.00
36416;DHT22;22447;44.530;18.620;2023-06-26T10:53:09;27.80;96.40
36416;DHT22;22447;44.530;18.620;2023-06-26T10:55:37;28.20;93.90
36416;DHT22;22447;44.530;18.620;2023-06-26T10:58:29;28.60;91.80
36416;DHT22;22447;44.530;18.620;2023-06-26T11:03:45;29.20;89.40
36416;DHT22;22447;44.530;18.620;2023-06-26T11:06:13;29.20;86.60
36416;DHT22;22447;44.530;18.620;2023-06-26T11:08:48;28.80;91.20
36416;DHT22;22447;44.530;18.620;2023-06-26T11:11:15;28.50;89.60
36416;DHT22;22447;44.530;18.620;2023-06-26T11:13:42;28.10;91.30
36416;DHT22;22447;44.530;18.620;2023-06-26T11:16:11;27.60;93.20
36416;DHT22;22447;44.530;18.620;2023-06-26T11:18:38;27.20;93.10
36416;DHT22;22447;44.530;18.620;2023-06-26T11:21:08;27.00;93.70
36416;DHT22;22447;44.530;18.620;2023-06-26T11:23:37;26.80;94.10
36416;DHT22;22447;44.530;18.620;2023-06-26T11:26:17;26.80;97.20
36416;DHT22;22447;44.530;18.620;2023-06-26T11:28:50;26.50;97.40
36416;DHT22;22447;44.530;18.620;2023-06-26T11:31:30;26.40;99.30
36416;DHT22;22447;44.530;18.620;2023-06-26T11:33:57;26.20;99.90
36416;DHT22;22447;44.530;18.620;2023-06-26T11:36:25;26.60;99.90
36416;DHT22;22447;44.530;18.620;2023-06-26T11:39:01;27.40;95.20
36416;DHT22;22447;44.530;18.620;2023-06-26T11:41:30;28.00;91.70
36416;DHT22;22447;44.530;18.620;2023-06-26T11:44:03;28.40;90.70
36416;DHT22;22447;44.530;18.620;2023-06-26T11:46:30;28.60;91.00
36416;DHT22;22447;44.530;18.620;2023-06-26T11:48:56;28.50;86.40
36416;DHT22;22447;44.530;18.620;2023-06-26T11:51:22;28.50;86.60
36416;DHT22;22447;44.530;18.620;2023-06-26T11:53:48;28.60;85.00
36416;DHT22;22447;44.530;18.620;2023-06-26T11:56:16;28.40;84.70
36416;DHT22;22447;44.530;18.620;2023-06-26T11:59:03;28.60;91.50
36416;DHT22;22447;44.530;18.620;2023-06-26T12:01:38;29.20;86.50
36416;DHT22;22447;44.530;18.620;2023-06-26T12:04:07;29.70;77.80
36416;DHT22;22447;44.530;18.620;2023-06-26T12:06:37;30.40;79.20
36416;DHT22;22447;44.530;18.620;2023-06-26T12:09:11;30.90;76.90
36416;DHT22;22447;44.530;18.620;2023-06-26T12:11:39;31.20;73.10
36416;DHT22;22447;44.530;18.620;2023-06-26T12:14:06;30.80;72.30
36416;DHT22;22447;44.530;18.620;2023-06-26T12:16:36;30.70;72.10
36416;DHT22;22447;44.530;18.620;2023-06-26T12:19:05;30.30;71.00
36416;DHT22;22447;44.530;18.620;2023-06-26T12:24:09;29.20;77.70
36416;DHT22;22447;44.530;18.620;2023-06-26T12:26:36;28.90;75.60
36416;DHT22;22447;44.530;18.620;2023-06-26T12:29:07;28.70;78.60
36416;DHT22;22447;44.530;18.620;2023-06-26T12:31:44;28.70;82.00
36416;DHT22;22447;44.530;18.620;2023-06-26T12:34:11;28.30;82.60
36416;DHT22;22447;44.530;18.620;2023-06-26T12:36:45;28.60;88.40
36416;DHT22;22447;44.530;18.620;2023-06-26T12:39:12;29.20;86.30
36416;DHT22;22447;44.530;18.620;2023-06-26T12:41:46;29.90;81.20
36416;DHT22;22447;44.530;18.620;2023-06-26T12:46:47;30.70;77.80
36416;DHT22;22447;44.530;18.620;2023-06-26T12:49:13;31.00;75.60
36416;DHT22;22447;44.530;18.620;2023-06-26T12:51:39;31.00;71.50
36416;DHT22;22447;44.530;18.620;2023-06-26T12:54:06;30.20;71.10
36416;DHT22;22447;44.530;18.620;2023-06-26T12:56:31;30.40;75.20
36416;DHT22;22447;44.530;18.620;2023-06-26T12:58:57;29.90;75.80
36416;DHT22;22447;44.530;18.620;2023-06-26T13:01:23;30.20;71.40
36416;DHT22;22447;44.530;18.620;2023-06-26T13:03:50;30.40;73.50
36416;DHT22;22447;44.530;18.620;2023-06-26T13:06:18;30.30;71.70
36416;DHT22;22447;44.530;18.620;2023-06-26T13:08:44;30.70;72.50
36416;DHT22;22447;44.530;18.620;2023-06-26T13:11:10;31.10;73.60
36416;DHT22;22447;44.530;18.620;2023-06-26T13:13:36;31.30;69.70
36416;DHT22;22447;44.530;18.620;2023-06-26T13:16:02;31.20;72.60
36416;DHT22;22447;44.530;18.620;2023-06-26T13:18:28;31.30;71.80
36416;DHT22;22447;44.530;18.620;2023-06-26T13:20:54;31.10;69.10
36416;DHT22;22447;44.530;18.620;2023-06-26T13:23:20;30.00;73.30
36416;DHT22;22447;44.530;18.620;2023-06-26T13:25:46;30.30;71.80
36416;DHT22;22447;44.530;18.620;2023-06-26T13:28:12;30.60;74.70
36416;DHT22;22447;44.530;18.620;2023-06-26T13:30:37;30.80;72.00
36416;DHT22;22447;44.530;18.620;2023-06-26T13:33:03;30.90;69.10
36416;DHT22;22447;44.530;18.620;2023-06-26T13:35:29;31.10;65.50
36416;DHT22;22447;44.530;18.620;2023-06-26T13:37:55;31.20;67.30
36416;DHT22;22447;44.530;18.620;2023-06-26T13:40:21;31.10;66.30
36416;DHT22;22447;44.530;18.620;2023-06-26T13:42:47;31.00;69.60
36416;DHT22;22447;44.530;18.620;2023-06-26T13:45:13;30.80;58.60
36416;DHT22;22447;44.530;18.620;2023-06-26T13:47:39;30.80;58.20
36416;DHT22;22447;44.530;18.620;2023-06-26T13:50:09;30.50;57.90
36416;DHT22;22447;44.530;18.620;2023-06-26T13:52:35;30.10;58.90
36416;DHT22;22447;44.530;18.620;2023-06-26T13:55:01;30.20;59.10
36416;DHT22;22447;44.530;18.620;2023-06-26T13:57:30;30.30;62.20
36416;DHT22;22447;44.530;18.620;2023-06-26T13:59:56;30.10;68.70
36416;DHT22;22447;44.530;18.620;2023-06-26T14:02:22;29.60;68.30
36416;DHT22;22447;44.530;18.620;2023-06-26T14:04:48;29.20;62.00
36416;DHT22;22447;44.530;18.620;2023-06-26T14:07:14;28.70;69.40
36416;DHT22;22447;44.530;18.620;2023-06-26T14:09:40;28.30;73.10
36416;DHT22;22447;44.530;18.620;2023-06-26T14:12:07;28.50;73.10
36416;DHT22;22447;44.530;18.620;2023-06-26T14:14:33;28.80;72.60
36416;DHT22;22447;44.530;18.620;2023-06-26T14:16:59;29.10;68.60
36416;DHT22;22447;44.530;18.620;2023-06-26T14:19:25;29.20;65.30
36416;DHT22;22447;44.530;18.620;2023-06-26T14:21:52;29.40;67.90
36416;DHT22;22447;44.530;18.620;2023-06-26T14:24:18;29.60;66.90
36416;DHT22;22447;44.530;18.620;2023-06-26T14:26:43;29.70;66.10
36416;DHT22;22447;44.530;18.620;2023-06-26T14:29:09;29.40;64.00
36416;DHT22;22447;44.530;18.620;2023-06-26T14:31:35;29.30;60.80
36416;DHT22;22447;44.530;18.620;2023-06-26T14:34:01;29.40;61.00
36416;DHT22;22447;44.530;18.620;2023-06-26T14:36:28;29.20;61.10
36416;DHT22;22447;44.530;18.620;2023-06-26T14:38:57;29.00;63.10
36416;DHT22;22447;44.530;18.620;2023-06-26T14:41:25;28.80;61.20
36416;DHT22;22447;44.530;18.620;2023-06-26T14:43:50;28.90;59.20
36416;DHT22;22447;44.530;18.620;2023-06-26T14:46:16;28.90;61.30
36416;DHT22;22447;44.530;18.620;2023-06-26T14:48:42;29.00;62.10
36416;DHT22;22447;44.530;18.620;2023-06-26T14:51:08;28.90;60.20
36416;DHT22;22447;44.530;18.620;2023-06-26T14:53:34;28.90;62.80
36416;DHT22;22447;44.530;18.620;2023-06-26T14:56:00;29.00;62.30
36416;DHT22;22447;44.530;18.620;2023-06-26T14:58:26;29.00;59.80
36416;DHT22;22447;44.530;18.620;2023-06-26T15:00:52;28.70;58.40
36416;DHT22;22447;44.530;18.620;2023-06-26T15:03:18;28.80;58.20
36416;DHT22;22447;44.530;18.620;2023-06-26T15:05:43;28.80;59.30
36416;DHT22;22447;44.530;18.620;2023-06-26T15:08:09;28.70;57.70
36416;DHT22;22447;44.530;18.620;2023-06-26T15:10:36;28.90;60.60
36416;DHT22;22447;44.530;18.620;2023-06-26T15:13:02;29.00;58.20
36416;DHT22;22447;44.530;18.620;2023-06-26T15:15:28;28.90;58.20
36416;DHT22;22447;44.530;18.620;2023-06-26T15:17:54;28.90;57.10
36416;DHT22;22447;44.530;18.620;2023-06-26T15:20:20;28.80;58.00
36416;DHT22;22447;44.530;18.620;2023-06-26T15:22:46;28.90;59.30
36416;DHT22;22447;44.530;18.620;2023-06-26T15:25:12;28.80;59.30
36416;DHT22;22447;44.530;18.620;2023-06-26T15:27:38;28.80;60.20
36416;DHT22;22447;44.530;18.620;2023-06-26T15:30:04;28.40;63.10
36416;DHT22;22447;44.530;18.620;2023-06-26T15:32:31;28.40;62.70
36416;DHT22;22447;44.530;18.620;2023-06-26T15:34:57;28.10;67.70